createdAt,value
2023-02-24T00:00:34.131Z,17.20
2023-02-24T00:03:19.209Z,17.42
2023-02-24T00:06:11.920Z,18.17
2023-02-24T00:08:57.075Z,18.10
2023-02-24T00:11:48.835Z,18.42
2023-02-24T00:14:39.417Z,18.00
2023-02-24T00:17:27.735Z,17.73
2023-02-24T00:20:13.755Z,16.33
2023-02-24T00:23:00.296Z,17.02
2023-02-24T00:25:45.641Z,16.33
2023-02-24T00:28:31.117Z,15.88
2023-02-24T00:31:19.680Z,16.65
2023-02-24T00:34:06.310Z,16.80
2023-02-24T00:36:51.668Z,15.40
2023-02-24T00:39:41.083Z,13.23
2023-02-24T00:42:26.201Z,13.80
2023-02-24T00:45:12.201Z,15.38
2023-02-24T00:47:57.645Z,14.95
2023-02-24T00:50:43.348Z,13.57
2023-02-24T00:53:29.448Z,13.57
2023-02-24T00:56:16.197Z,15.23
2023-02-24T00:59:02.607Z,12.55
2023-02-24T01:01:49.872Z,13.93
2023-02-24T01:04:37.590Z,14.18
2023-02-24T01:07:23.247Z,14.55
2023-02-24T01:10:12.316Z,14.07
2023-02-24T01:12:57.814Z,15.65
2023-02-24T01:15:43.139Z,16.23
2023-02-24T01:18:31.013Z,14.48
2023-02-24T01:21:18.014Z,16.73
2023-02-24T01:24:03.817Z,16.13
2023-02-24T01:26:48.780Z,14.55
2023-02-24T01:29:39.295Z,16.05
2023-02-24T01:32:25.549Z,14.35
2023-02-24T01:35:12.096Z,15.65
2023-02-24T01:37:59.131Z,15.75
2023-02-24T01:40:44.385Z,18.00
2023-02-24T01:43:30.564Z,16.83
2023-02-24T01:46:17.610Z,16.13
2023-02-24T01:49:17.132Z,14.93
2023-02-24T01:52:11.787Z,16.00
2023-02-24T01:55:03.909Z,15.68
2023-02-24T01:57:51.403Z,16.45
2023-02-24T02:00:45.620Z,15.55
2023-02-24T02:03:35.158Z,15.68
2023-02-24T02:06:20.198Z,17.35
2023-02-24T02:09:07.967Z,16.55
2023-02-24T02:11:52.889Z,15.60
2023-02-24T02:14:44.312Z,16.10
2023-02-24T02:17:40.889Z,15.18
2023-02-24T02:20:56.825Z,15.05
2023-02-24T02:23:53.921Z,15.65
2023-02-24T02:26:54.013Z,15.85
2023-02-24T02:30:23.400Z,16.27
2023-02-24T02:33:24.538Z,17.48
2023-02-24T02:36:26.760Z,15.48
2023-02-24T02:39:25.615Z,16.20
2023-02-24T02:42:28.256Z,16.13
2023-02-24T02:45:29.046Z,15.52
2023-02-24T02:48:25.639Z,15.50
2023-02-24T02:51:17.658Z,16.05
2023-02-24T02:54:15.693Z,15.82
2023-02-24T02:57:09.496Z,16.40
2023-02-24T03:00:14.132Z,16.23
2023-02-24T03:03:08.546Z,16.88
2023-02-24T03:06:01.713Z,16.45
2023-02-24T03:09:01.568Z,14.85
2023-02-24T03:11:53.774Z,15.82
2023-02-24T03:14:44.337Z,15.80
2023-02-24T03:17:33.676Z,16.25
2023-02-24T03:20:32.717Z,15.57
2023-02-24T03:23:21.809Z,17.92
2023-02-24T03:26:23.364Z,14.75
2023-02-24T03:29:23.849Z,15.38
2023-02-24T03:32:18.430Z,14.88
2023-02-24T03:35:16.909Z,13.95
2023-02-24T03:38:03.849Z,14.48
2023-02-24T03:40:49.316Z,15.48
2023-02-24T03:43:39.667Z,14.20
2023-02-24T03:46:26.037Z,14.82
2023-02-24T03:49:14.158Z,14.98
2023-02-24T03:52:29.133Z,13.15
2023-02-24T03:55:44.709Z,13.13
2023-02-24T03:58:57.145Z,14.20
2023-02-24T04:01:55.392Z,13.52
2023-02-24T04:04:58.608Z,14.32
2023-02-24T04:07:57.776Z,12.65
2023-02-24T04:10:52.647Z,13.15
2023-02-24T04:13:49.378Z,14.30
2023-02-24T04:17:08.883Z,13.38
2023-02-24T04:20:00.819Z,12.95
2023-02-24T04:22:52.893Z,13.73
2023-02-24T04:25:40.379Z,12.95
2023-02-24T04:28:28.336Z,14.38
2023-02-24T04:31:17.559Z,12.52
2023-02-24T04:34:02.779Z,13.13
2023-02-24T04:36:49.535Z,13.73
2023-02-24T04:39:38.423Z,13.05
2023-02-24T04:42:23.474Z,12.80
2023-02-24T04:45:12.918Z,13.95
2023-02-24T04:48:03.257Z,13.48
2023-02-24T04:50:54.974Z,14.18
2023-02-24T04:53:40.669Z,14.55
2023-02-24T04:56:25.729Z,13.77
2023-02-24T04:59:12.029Z,14.07
2023-02-24T05:02:01.335Z,14.32
2023-02-24T05:04:49.538Z,15.25
2023-02-24T05:07:35.261Z,13.05
2023-02-24T05:10:22.429Z,12.48
2023-02-24T05:13:09.252Z,13.60
2023-02-24T05:15:56.517Z,12.35
2023-02-24T05:18:42.650Z,13.40
2023-02-24T05:21:36.737Z,13.70
2023-02-24T05:24:21.911Z,13.15
2023-02-24T05:27:07.365Z,13.93
2023-02-24T05:29:54.731Z,13.20
2023-02-24T05:32:41.051Z,11.88
2023-02-24T05:35:26.832Z,13.85
2023-02-24T05:38:12.000Z,13.27
2023-02-24T05:41:16.976Z,13.35
2023-02-24T05:44:08.442Z,13.27
2023-02-24T05:46:59.475Z,12.70
2023-02-24T05:49:44.842Z,13.07
2023-02-24T05:52:31.093Z,13.60
2023-02-24T05:55:16.527Z,13.18
2023-02-24T05:58:06.182Z,14.45
2023-02-24T06:00:52.369Z,12.80
2023-02-24T06:03:37.596Z,15.23
2023-02-24T06:06:23.582Z,12.70
2023-02-24T06:09:12.700Z,13.93
2023-02-24T06:11:58.198Z,13.65
2023-02-24T06:14:44.963Z,12.95
2023-02-24T06:17:30.360Z,13.23
2023-02-24T06:20:17.001Z,13.60
2023-02-24T06:23:04.359Z,14.93
2023-02-24T06:25:49.544Z,15.25
2023-02-24T06:28:34.521Z,13.75
2023-02-24T06:31:21.591Z,13.48
2023-02-24T06:34:08.227Z,13.35
2023-02-24T06:36:53.993Z,14.35
2023-02-24T06:39:39.750Z,12.00
2023-02-24T06:42:24.996Z,11.13
2023-02-24T06:45:11.866Z,12.27
2023-02-24T06:47:58.039Z,13.50
2023-02-24T06:50:44.042Z,13.90
2023-02-24T06:53:29.526Z,13.48
2023-02-24T06:56:19.746Z,12.82
2023-02-24T06:59:06.990Z,12.93
2023-02-24T07:01:53.876Z,12.85
2023-02-24T07:04:43.860Z,13.30
2023-02-24T07:07:29.390Z,10.38
2023-02-24T07:10:15.592Z,13.40
2023-02-24T07:13:00.841Z,12.52
2023-02-24T07:15:49.343Z,12.15
2023-02-24T07:18:35.938Z,11.05
2023-02-24T07:21:23.539Z,12.57
2023-02-24T07:24:14.160Z,12.23
2023-02-24T07:27:06.248Z,10.15
2023-02-24T07:29:53.503Z,11.73
2023-02-24T07:32:40.521Z,11.35
2023-02-24T07:35:26.240Z,10.43
2023-02-24T07:38:17.033Z,11.38
2023-02-24T07:41:02.863Z,12.20
2023-02-24T07:43:53.458Z,10.85
2023-02-24T07:46:38.631Z,12.02
2023-02-24T07:49:29.942Z,11.77
2023-02-24T07:52:16.058Z,11.68
2023-02-24T07:55:01.604Z,12.57
2023-02-24T07:57:48.449Z,12.73
2023-02-24T08:00:50.102Z,11.57
2023-02-24T08:03:41.141Z,11.57
2023-02-24T08:06:27.329Z,12.30
2023-02-24T08:09:18.305Z,11.07
2023-02-24T08:12:04.063Z,11.45
2023-02-24T08:14:52.148Z,10.50
2023-02-24T08:17:37.272Z,10.38
2023-02-24T08:20:22.795Z,10.30
2023-02-24T08:23:10.846Z,10.88
2023-02-24T08:25:56.431Z,10.45
2023-02-24T08:28:41.977Z,10.05
2023-02-24T08:31:27.330Z,9.13
2023-02-24T08:34:16.236Z,10.02
2023-02-24T08:37:01.667Z,9.20
2023-02-24T08:39:47.112Z,10.77
2023-02-24T08:42:35.202Z,10.55
2023-02-24T08:45:20.708Z,9.85
2023-02-24T08:48:18.219Z,9.98
2023-02-24T08:51:22.946Z,10.90
2023-02-24T08:54:15.944Z,9.20
2023-02-24T08:57:09.897Z,9.95
2023-02-24T08:59:57.860Z,10.90
2023-02-24T09:02:43.312Z,9.73
2023-02-24T09:05:29.450Z,9.45
2023-02-24T09:08:14.828Z,10.82
2023-02-24T09:11:09.032Z,10.77
2023-02-24T09:13:58.136Z,11.10
2023-02-24T09:17:02.001Z,12.00
2023-02-24T09:19:50.073Z,10.73
2023-02-24T09:22:57.805Z,10.65
2023-02-24T09:25:49.360Z,10.70
2023-02-24T09:28:48.497Z,10.43
2023-02-24T09:31:55.467Z,11.30
2023-02-24T09:34:45.445Z,10.88
2023-02-24T09:37:31.526Z,10.88
2023-02-24T09:40:16.934Z,9.70
2023-02-24T09:43:10.986Z,8.93
2023-02-24T09:46:01.819Z,8.02
2023-02-24T09:49:12.783Z,8.27
2023-02-24T09:52:08.773Z,7.43
2023-02-24T09:55:12.769Z,7.53
2023-02-24T09:58:16.180Z,7.53
2023-02-24T10:01:23.728Z,7.25
2023-02-24T10:04:22.840Z,7.50
2023-02-24T10:07:38.331Z,6.75
2023-02-24T10:10:28.775Z,8.25
2023-02-24T10:13:30.326Z,8.00
2023-02-24T10:16:23.888Z,6.70
2023-02-24T10:19:24.553Z,7.47
2023-02-24T10:22:28.311Z,7.82
2023-02-24T10:25:22.702Z,7.07
2023-02-24T10:28:25.940Z,6.82
2023-02-24T10:31:26.557Z,7.40
2023-02-24T10:34:26.331Z,7.00
2023-02-24T10:37:27.543Z,6.72
2023-02-24T10:40:26.218Z,6.35
2023-02-24T10:43:19.666Z,6.72
2023-02-24T10:46:16.941Z,5.40
2023-02-24T10:49:09.452Z,5.05
2023-02-24T10:51:57.588Z,5.90
2023-02-24T10:55:05.204Z,5.80
2023-02-24T10:57:59.199Z,5.00
2023-02-24T11:01:00.933Z,5.07
2023-02-24T11:04:01.489Z,4.68
2023-02-24T11:06:52.824Z,5.82
2023-02-24T11:09:52.589Z,4.63
2023-02-24T11:13:10.230Z,5.05
2023-02-24T11:16:14.584Z,5.10
2023-02-24T11:19:00.115Z,5.40
2023-02-24T11:21:45.262Z,5.20
2023-02-24T11:24:31.347Z,4.70
2023-02-24T11:27:20.921Z,5.05
2023-02-24T11:30:33.592Z,4.75
2023-02-24T11:33:28.904Z,5.65
2023-02-24T11:36:29.683Z,6.18
2023-02-24T11:39:40.351Z,4.68
2023-02-24T11:42:51.236Z,5.63
2023-02-24T11:46:05.253Z,5.60
2023-02-24T11:48:57.045Z,5.38
2023-02-24T11:51:44.661Z,4.38
2023-02-24T11:54:37.453Z,5.05
2023-02-24T11:57:51.399Z,5.20
2023-02-24T12:00:41.229Z,4.90
2023-02-24T12:03:52.318Z,5.40
2023-02-24T12:07:08.268Z,5.43
2023-02-24T12:10:16.064Z,4.97
2023-02-24T12:13:14.062Z,4.85
2023-02-24T12:16:07.715Z,5.32
2023-02-24T12:19:15.838Z,5.38
2023-02-24T12:22:18.944Z,5.47
2023-02-24T12:25:05.738Z,4.70
2023-02-24T12:28:14.076Z,5.57
2023-02-24T12:31:21.984Z,5.65
2023-02-24T12:34:30.452Z,7.30
2023-02-24T12:37:24.508Z,5.47
2023-02-24T12:40:23.378Z,5.07
2023-02-24T12:43:30.340Z,6.40
2023-02-24T12:46:24.384Z,5.55
2023-02-24T12:49:40.699Z,4.32
2023-02-24T12:52:52.524Z,5.70
2023-02-24T12:55:53.414Z,5.38
2023-02-24T12:58:42.116Z,6.07
2023-02-24T13:01:35.011Z,5.05
2023-02-24T13:04:55.005Z,5.18
2023-02-24T13:08:03.149Z,5.53
2023-02-24T13:10:51.130Z,5.82
2023-02-24T13:13:50.475Z,5.70
2023-02-24T13:16:36.391Z,5.88
2023-02-24T13:19:30.906Z,5.78
2023-02-24T13:22:17.823Z,4.80
2023-02-24T13:25:09.276Z,5.28
2023-02-24T13:28:00.803Z,6.07
2023-02-24T13:30:46.122Z,5.85
2023-02-24T13:33:36.843Z,5.93
2023-02-24T13:36:25.031Z,5.43
2023-02-24T13:39:44.287Z,6.22
2023-02-24T13:42:31.256Z,6.43
2023-02-24T13:45:19.628Z,5.65
2023-02-24T13:48:42.334Z,6.35
2023-02-24T13:51:47.448Z,6.13
2023-02-24T13:54:57.517Z,4.97
2023-02-24T13:58:20.167Z,5.30
2023-02-24T14:01:10.951Z,5.20
2023-02-24T14:04:24.932Z,6.05
2023-02-24T14:07:16.652Z,4.78
2023-02-24T14:10:05.496Z,5.15
2023-02-24T14:12:56.584Z,5.18
2023-02-24T14:15:44.678Z,5.13
2023-02-24T14:18:30.612Z,5.57
2023-02-24T14:21:22.818Z,4.75
2023-02-24T14:24:13.029Z,4.82
2023-02-24T14:27:00.905Z,5.55
2023-02-24T14:29:45.894Z,4.97
2023-02-24T14:32:33.523Z,5.25
2023-02-24T14:35:23.610Z,6.53
2023-02-24T14:38:35.641Z,4.43
2023-02-24T14:41:24.613Z,5.13
2023-02-24T14:44:27.486Z,4.40
2023-02-24T14:47:14.748Z,5.00
2023-02-24T14:50:02.453Z,5.40
2023-02-24T14:53:15.501Z,7.25
2023-02-24T14:56:04.929Z,4.82
2023-02-24T14:58:57.864Z,5.00
2023-02-24T15:01:49.773Z,4.57
2023-02-24T15:04:43.574Z,5.03
2023-02-24T15:07:32.117Z,4.60
2023-02-24T15:10:24.270Z,4.63
2023-02-24T15:13:18.954Z,5.30
2023-02-24T15:16:27.711Z,5.13
2023-02-24T15:19:33.312Z,4.88
2023-02-24T15:22:29.517Z,5.47
2023-02-24T15:25:33.813Z,4.70
2023-02-24T15:28:32.670Z,5.80
2023-02-24T15:31:19.781Z,5.68
2023-02-24T15:34:05.290Z,4.65
2023-02-24T15:36:54.430Z,5.28
2023-02-24T15:39:42.949Z,5.50
2023-02-24T15:42:33.543Z,4.53
2023-02-24T15:45:25.353Z,4.97
2023-02-24T15:48:26.840Z,6.07
2023-02-24T15:51:21.756Z,4.95
2023-02-24T15:54:26.794Z,5.90
2023-02-24T15:57:16.589Z,5.35
2023-02-24T16:00:01.877Z,5.43
2023-02-24T16:02:47.268Z,5.53
2023-02-24T16:05:32.679Z,5.18
2023-02-24T16:08:19.821Z,6.90
2023-02-24T16:11:05.498Z,6.40
2023-02-24T16:14:00.657Z,4.72
2023-02-24T16:16:46.162Z,5.55
2023-02-24T16:19:31.629Z,5.15
2023-02-24T16:22:17.049Z,5.72
2023-02-24T16:25:03.268Z,4.78
2023-02-24T16:27:49.550Z,5.30
2023-02-24T16:30:35.557Z,5.50
2023-02-24T16:33:23.645Z,5.57
2023-02-24T16:36:15.818Z,6.57
2023-02-24T16:39:01.497Z,7.18
2023-02-24T16:41:47.173Z,5.35
2023-02-24T16:44:32.633Z,6.20
2023-02-24T16:47:22.172Z,5.75
2023-02-24T16:50:09.708Z,6.10
2023-02-24T16:52:55.351Z,5.47
2023-02-24T16:55:40.944Z,5.32
2023-02-24T16:58:26.711Z,5.80
2023-02-24T17:01:19.186Z,6.75
2023-02-24T17:04:09.615Z,6.32
2023-02-24T17:06:55.094Z,7.15
2023-02-24T17:09:40.573Z,7.60
2023-02-24T17:12:26.112Z,7.20
2023-02-24T17:15:20.640Z,6.35
2023-02-24T17:18:06.722Z,7.22
2023-02-24T17:20:52.657Z,6.35
2023-02-24T17:23:37.979Z,5.10
2023-02-24T17:26:23.875Z,6.20
2023-02-24T17:29:10.110Z,5.75
2023-02-24T17:31:55.500Z,6.05
2023-02-24T17:34:40.739Z,6.15
2023-02-24T17:37:26.335Z,6.55
2023-02-24T17:40:12.509Z,6.60
2023-02-24T17:42:57.584Z,6.72
2023-02-24T17:45:44.981Z,7.78
2023-02-24T17:48:30.208Z,5.47
2023-02-24T17:51:17.513Z,6.53
2023-02-24T17:54:03.345Z,6.72
2023-02-24T17:56:48.379Z,6.57
2023-02-24T17:59:33.819Z,6.55
2023-02-24T18:02:19.598Z,6.97
2023-02-24T18:05:05.589Z,6.13
2023-02-24T18:07:51.024Z,7.07
2023-02-24T18:10:36.400Z,6.18
2023-02-24T18:13:21.866Z,6.40
2023-02-24T18:16:11.894Z,6.15
2023-02-24T18:18:57.432Z,6.68
2023-02-24T18:21:42.945Z,6.20
2023-02-24T18:24:28.293Z,5.90
2023-02-24T18:27:13.826Z,6.72
2023-02-24T18:29:59.046Z,6.30
2023-02-24T18:32:45.003Z,5.38
2023-02-24T18:35:30.889Z,5.97
2023-02-24T18:38:17.587Z,5.97
2023-02-24T18:41:11.510Z,6.32
2023-02-24T18:43:57.568Z,5.90
2023-02-24T18:46:42.634Z,6.35
2023-02-24T18:49:27.935Z,5.70
2023-02-24T18:52:13.335Z,4.90
2023-02-24T18:54:58.694Z,6.03
2023-02-24T18:57:44.302Z,5.55
2023-02-24T19:00:29.615Z,5.90
2023-02-24T19:03:14.936Z,7.00
2023-02-24T19:06:00.398Z,4.90
2023-02-24T19:08:47.269Z,5.13
2023-02-24T19:11:33.298Z,5.35
2023-02-24T19:14:18.417Z,5.13
2023-02-24T19:17:03.902Z,4.70
2023-02-24T19:19:49.319Z,5.30
2023-02-24T19:22:34.909Z,5.03
2023-02-24T19:25:20.471Z,5.68
2023-02-24T19:28:05.705Z,5.45
2023-02-24T19:30:51.122Z,4.85
2023-02-24T19:33:36.386Z,5.15
2023-02-24T19:36:23.112Z,5.38
2023-02-24T19:39:10.959Z,4.68
2023-02-24T19:41:57.365Z,4.72
2023-02-24T19:44:42.720Z,5.38
2023-02-24T19:47:28.085Z,4.45
2023-02-24T19:50:14.795Z,4.28
2023-02-24T19:53:00.021Z,4.32
2023-02-24T19:55:49.560Z,3.17
2023-02-24T19:58:35.816Z,3.97
2023-02-24T20:01:21.867Z,3.40
2023-02-24T20:04:07.191Z,4.03
2023-02-24T20:06:52.478Z,4.47
2023-02-24T20:09:40.265Z,4.50
2023-02-24T20:12:26.025Z,3.80
2023-02-24T20:15:11.412Z,2.75
2023-02-24T20:18:03.068Z,2.47
2023-02-24T20:20:48.849Z,2.40
2023-02-24T20:23:34.179Z,2.35
2023-02-24T20:26:20.273Z,1.98
2023-02-24T20:29:05.745Z,2.22
2023-02-24T20:31:51.697Z,2.00
2023-02-24T20:34:37.896Z,1.88
2023-02-24T20:37:23.198Z,1.65
2023-02-24T20:40:09.263Z,1.58
2023-02-24T20:42:54.634Z,2.40
2023-02-24T20:45:40.907Z,1.85
2023-02-24T20:48:26.470Z,1.83
2023-02-24T20:51:12.428Z,1.30
2023-02-24T20:53:58.747Z,1.98
2023-02-24T20:56:45.564Z,1.58
2023-02-24T20:59:30.967Z,1.20
2023-02-24T21:02:16.398Z,1.60
2023-02-24T21:05:01.838Z,1.35
2023-02-24T21:07:49.793Z,1.38
2023-02-24T21:10:35.169Z,1.60
2023-02-24T21:13:21.272Z,1.85
2023-02-24T21:16:07.542Z,1.70
2023-02-24T21:18:53.289Z,1.80
2023-02-24T21:21:39.569Z,1.48
2023-02-24T21:24:25.115Z,2.00
2023-02-24T21:27:10.272Z,1.80
2023-02-24T21:29:55.676Z,1.92
2023-02-24T21:32:41.088Z,1.30
2023-02-24T21:35:26.561Z,1.70
2023-02-24T21:38:11.909Z,2.00
2023-02-24T21:41:02.059Z,1.88
2023-02-24T21:43:51.289Z,1.70
2023-02-24T21:46:36.791Z,1.33
2023-02-24T21:49:23.461Z,1.70
2023-02-24T21:52:11.395Z,1.63
2023-02-24T21:54:57.904Z,2.25
2023-02-24T21:57:47.923Z,2.47
2023-02-24T22:00:33.429Z,1.77
2023-02-24T22:03:18.790Z,2.13
2023-02-24T22:06:04.606Z,2.05
2023-02-24T22:08:49.938Z,2.50
2023-02-24T22:11:37.957Z,2.42
2023-02-24T22:14:23.262Z,2.42
2023-02-24T22:17:08.605Z,2.58
2023-02-24T22:19:56.190Z,3.22
2023-02-24T22:22:42.962Z,3.65
2023-02-24T22:25:28.417Z,3.40
2023-02-24T22:28:13.968Z,3.78
2023-02-24T22:30:59.537Z,3.33
2023-02-24T22:33:46.128Z,3.65
2023-02-24T22:36:36.587Z,4.45
2023-02-24T22:39:23.120Z,3.58
2023-02-24T22:42:08.790Z,4.68
2023-02-24T22:44:54.193Z,4.00
2023-02-24T22:47:39.571Z,4.32
2023-02-24T22:50:25.754Z,4.60
2023-02-24T22:53:10.921Z,4.50
2023-02-24T22:55:59.797Z,4.70
2023-02-24T22:58:45.328Z,4.68
2023-02-24T23:01:33.386Z,4.65
2023-02-24T23:04:18.757Z,4.93
2023-02-24T23:07:04.514Z,4.65
2023-02-24T23:09:52.963Z,4.68
2023-02-24T23:12:38.497Z,4.72
2023-02-24T23:15:24.246Z,5.13
2023-02-24T23:18:10.640Z,5.05
2023-02-24T23:21:05.496Z,5.65
2023-02-24T23:23:56.828Z,5.05
2023-02-24T23:26:54.426Z,4.55
2023-02-24T23:29:39.506Z,5.38
2023-02-24T23:32:25.112Z,5.28
2023-02-24T23:35:11.743Z,5.43
2023-02-24T23:37:57.305Z,4.80
2023-02-24T23:40:50.018Z,5.05
2023-02-24T23:43:36.327Z,5.28
2023-02-24T23:46:21.767Z,5.07
2023-02-24T23:49:16.639Z,4.60
2023-02-24T23:52:09.320Z,4.40
2023-02-24T23:54:56.542Z,4.75
